createdAt,value
2017-09-24T00:00:06.387Z,99.90
2017-09-24T00:02:34.700Z,99.90
2017-09-24T00:05:02.992Z,99.90
2017-09-24T00:07:30.543Z,99.90
2017-09-24T00:09:58.072Z,99.90
2017-09-24T00:12:25.614Z,99.90
2017-09-24T00:14:53.141Z,99.90
2017-09-24T00:17:20.684Z,99.90
2017-09-24T00:19:48.206Z,99.90
2017-09-24T00:22:15.752Z,99.90
2017-09-24T00:24:43.275Z,99.90
2017-09-24T00:27:10.819Z,99.90
2017-09-24T00:29:38.347Z,99.90
2017-09-24T00:32:05.891Z,99.90
2017-09-24T00:34:34.174Z,99.90
2017-09-24T00:37:01.718Z,99.90
2017-09-24T00:39:29.248Z,99.90
2017-09-24T00:41:56.792Z,99.90
2017-09-24T00:44:25.078Z,99.90
2017-09-24T00:46:52.619Z,99.90
2017-09-24T00:49:20.139Z,99.90
2017-09-24T00:51:48.450Z,99.90
2017-09-24T00:54:15.975Z,99.90
2017-09-24T00:56:44.290Z,99.90
2017-09-24T00:59:11.813Z,99.90
2017-09-24T01:01:39.351Z,99.90
2017-09-24T01:04:06.882Z,99.90
2017-09-24T01:06:34.418Z,99.90
2017-09-24T01:09:01.943Z,99.90
2017-09-24T01:11:29.487Z,99.90
2017-09-24T01:13:57.010Z,99.90
2017-09-24T01:16:24.557Z,99.90
2017-09-24T01:18:52.851Z,99.90
2017-09-24T01:21:20.390Z,99.90
2017-09-24T01:23:48.682Z,99.90
2017-09-24T01:26:16.232Z,99.90
2017-09-24T01:28:43.766Z,99.90
2017-09-24T01:31:11.315Z,99.90
2017-09-24T01:33:38.912Z,99.90
2017-09-24T01:36:07.195Z,99.90
2017-09-24T01:38:34.743Z,99.90
2017-09-24T01:41:02.271Z,99.90
2017-09-24T01:43:29.836Z,99.90
2017-09-24T01:45:57.360Z,99.90
2017-09-24T01:48:24.904Z,99.90
2017-09-24T01:50:52.434Z,99.90
2017-09-24T01:53:19.986Z,99.90
2017-09-24T01:55:47.521Z,99.90
2017-09-24T01:58:15.065Z,99.90
2017-09-24T02:00:42.595Z,99.90
2017-09-24T02:03:10.146Z,99.90
2017-09-24T02:05:37.666Z,99.90
2017-09-24T02:08:05.217Z,99.90
2017-09-24T02:10:32.742Z,99.90
2017-09-24T02:13:00.292Z,99.90
2017-09-24T02:15:28.587Z,99.90
2017-09-24T02:17:56.139Z,99.90
2017-09-24T02:20:23.666Z,99.90
2017-09-24T02:22:51.211Z,99.90
2017-09-24T02:25:18.743Z,99.90
2017-09-24T02:27:46.288Z,99.90
2017-09-24T02:30:13.814Z,99.90
2017-09-24T02:32:41.357Z,99.90
2017-09-24T02:35:08.875Z,99.90
2017-09-24T02:37:36.414Z,99.90
2017-09-24T02:40:03.948Z,99.90
2017-09-24T02:42:32.251Z,99.90
2017-09-24T02:44:59.774Z,99.90
2017-09-24T02:47:27.323Z,99.90
2017-09-24T02:49:55.621Z,99.90
2017-09-24T02:52:23.158Z,99.90
2017-09-24T02:54:50.682Z,99.90
2017-09-24T02:57:18.218Z,99.90
2017-09-24T02:59:45.746Z,99.90
2017-09-24T03:02:14.056Z,99.90
2017-09-24T03:04:42.339Z,99.90
2017-09-24T03:07:09.875Z,99.90
2017-09-24T03:09:37.399Z,99.90
2017-09-24T03:12:04.943Z,99.90
2017-09-24T03:14:32.474Z,99.90
2017-09-24T03:17:00.014Z,99.90
2017-09-24T03:19:27.539Z,99.90
2017-09-24T03:21:55.844Z,99.90
2017-09-24T03:24:23.366Z,99.90
2017-09-24T03:26:50.916Z,99.90
2017-09-24T03:29:18.436Z,99.90
2017-09-24T03:31:46.751Z,99.90
2017-09-24T03:34:14.279Z,99.90
2017-09-24T03:36:41.794Z,99.90
2017-09-24T03:39:09.339Z,99.90
2017-09-24T03:41:36.853Z,99.90
2017-09-24T03:44:04.394Z,99.90
2017-09-24T03:46:31.911Z,99.90
2017-09-24T03:48:59.442Z,99.90
2017-09-24T03:51:26.958Z,99.90
2017-09-24T03:53:54.489Z,99.90
2017-09-24T03:56:22.013Z,99.90
2017-09-24T03:58:49.546Z,99.90
2017-09-24T04:01:17.068Z,99.90
2017-09-24T04:03:44.606Z,99.90
2017-09-24T04:06:12.903Z,99.90
2017-09-24T04:08:40.450Z,99.90
2017-09-24T04:11:07.973Z,99.90
2017-09-24T04:13:35.514Z,99.90
2017-09-24T04:16:03.041Z,99.90
2017-09-24T04:18:31.343Z,99.90
2017-09-24T04:20:59.630Z,99.90
2017-09-24T04:23:27.174Z,99.90
2017-09-24T04:25:54.686Z,99.90
2017-09-24T04:28:22.226Z,99.90
2017-09-24T04:30:50.510Z,99.90
2017-09-24T04:33:18.050Z,99.90
2017-09-24T04:35:45.566Z,99.90
2017-09-24T04:38:13.103Z,99.90
2017-09-24T04:40:41.396Z,99.90
2017-09-24T04:43:08.942Z,99.90
2017-09-24T04:45:37.224Z,99.90
2017-09-24T04:48:04.766Z,99.90
2017-09-24T04:50:32.283Z,99.90
2017-09-24T04:52:59.829Z,99.90
2017-09-24T04:55:27.351Z,99.90
2017-09-24T04:57:54.889Z,99.90
2017-09-24T05:00:22.411Z,99.90
2017-09-24T05:02:49.949Z,99.90
2017-09-24T05:05:17.472Z,99.90
2017-09-24T05:07:45.775Z,99.90
2017-09-24T05:10:13.295Z,99.90
2017-09-24T05:12:41.617Z,99.90
2017-09-24T05:15:09.139Z,99.90
2017-09-24T05:17:36.686Z,99.90
2017-09-24T05:20:04.219Z,99.90
2017-09-24T05:22:31.762Z,99.90
2017-09-24T05:24:59.287Z,99.90
2017-09-24T05:27:26.822Z,99.90
2017-09-24T05:29:55.102Z,99.90
2017-09-24T05:32:22.638Z,99.90
2017-09-24T05:34:50.170Z,99.90
2017-09-24T05:37:18.450Z,99.90
2017-09-24T05:39:46.750Z,99.90
2017-09-24T05:42:14.277Z,99.90
2017-09-24T05:44:41.814Z,99.90
2017-09-24T05:47:09.335Z,99.90
2017-09-24T05:49:37.633Z,99.90
2017-09-24T05:52:05.928Z,99.90
2017-09-24T05:54:33.470Z,99.90
2017-09-24T05:57:00.998Z,99.90
2017-09-24T05:59:28.540Z,99.90
2017-09-24T06:01:56.826Z,99.90
2017-09-24T06:04:25.127Z,99.90
2017-09-24T06:06:52.642Z,99.90
2017-09-24T06:09:20.943Z,99.90
2017-09-24T06:11:48.475Z,99.90
2017-09-24T06:14:16.029Z,99.90
2017-09-24T06:16:43.550Z,99.90
2017-09-24T06:19:11.100Z,99.90
2017-09-24T06:21:39.386Z,99.90
2017-09-24T06:24:06.923Z,99.90
2017-09-24T06:26:34.441Z,99.90
2017-09-24T06:29:01.979Z,99.90
2017-09-24T06:31:29.497Z,99.90
2017-09-24T06:33:57.030Z,99.90
2017-09-24T06:36:24.552Z,99.90
2017-09-24T06:38:52.851Z,99.90
2017-09-24T06:41:20.371Z,99.90
2017-09-24T06:43:47.907Z,99.90
2017-09-24T06:46:15.427Z,99.90
2017-09-24T06:48:42.962Z,99.90
2017-09-24T06:51:10.479Z,99.90
2017-09-24T06:53:38.015Z,99.90
2017-09-24T06:56:05.534Z,99.90
2017-09-24T06:58:33.075Z,99.90
2017-09-24T07:01:00.603Z,99.90
2017-09-24T07:03:28.138Z,99.90
2017-09-24T07:05:55.662Z,99.90
2017-09-24T07:08:23.205Z,99.90
2017-09-24T07:10:51.498Z,99.90
2017-09-24T07:13:19.055Z,99.90
2017-09-24T07:15:47.338Z,99.90
2017-09-24T07:18:14.879Z,99.90
2017-09-24T07:20:42.407Z,99.90
2017-09-24T07:23:09.955Z,99.90
2017-09-24T07:25:38.241Z,99.90
2017-09-24T07:28:05.783Z,99.90
2017-09-24T07:30:33.298Z,99.90
2017-09-24T07:33:00.834Z,99.90
2017-09-24T07:35:28.363Z,99.90
2017-09-24T07:37:55.909Z,99.90
2017-09-24T07:40:23.433Z,99.90
2017-09-24T07:42:50.952Z,99.90
2017-09-24T07:45:19.267Z,99.90
2017-09-24T07:47:46.790Z,99.90
2017-09-24T07:50:14.330Z,99.90
2017-09-24T07:52:41.854Z,99.90
2017-09-24T07:55:10.167Z,99.90
2017-09-24T07:57:38.456Z,99.90
2017-09-24T08:00:05.991Z,99.90
2017-09-24T08:02:33.512Z,99.90
2017-09-24T08:05:01.069Z,99.90
2017-09-24T08:07:28.595Z,99.90
2017-09-24T08:09:56.383Z,99.90
2017-09-24T08:12:23.901Z,99.90
2017-09-24T08:14:51.438Z,99.90
2017-09-24T08:17:18.959Z,99.90
2017-09-24T08:19:47.262Z,99.90
2017-09-24T08:22:14.782Z,99.90
2017-09-24T08:24:43.095Z,99.90
2017-09-24T08:27:10.615Z,99.90
2017-09-24T08:29:38.922Z,99.90
2017-09-24T08:32:06.442Z,99.90
2017-09-24T08:34:33.979Z,99.90
2017-09-24T08:37:01.495Z,99.90
2017-09-24T08:39:29.035Z,99.90
2017-09-24T08:41:56.555Z,99.90
2017-09-24T08:44:24.090Z,99.90
2017-09-24T08:46:51.610Z,99.90
2017-09-24T08:49:19.148Z,99.90
2017-09-24T08:51:46.665Z,99.90
2017-09-24T08:54:14.198Z,99.40
2017-09-24T08:56:41.723Z,98.80
2017-09-24T08:59:10.027Z,99.40
2017-09-24T09:01:37.544Z,99.40
2017-09-24T09:04:05.078Z,99.30
2017-09-24T09:06:32.595Z,98.70
2017-09-24T09:09:00.134Z,98.80
2017-09-24T09:11:28.420Z,98.50
2017-09-24T09:13:55.971Z,98.50
2017-09-24T09:16:23.490Z,98.50
2017-09-24T09:18:51.010Z,99.90
2017-09-24T09:21:19.323Z,99.90
2017-09-24T09:23:46.845Z,99.90
2017-09-24T09:26:14.386Z,99.90
2017-09-24T09:28:41.903Z,99.40
2017-09-24T09:31:09.439Z,99.90
2017-09-24T09:33:36.958Z,99.90
2017-09-24T09:36:04.499Z,99.10
2017-09-24T09:38:32.022Z,99.50
2017-09-24T09:41:00.331Z,99.90
2017-09-24T09:43:39.639Z,99.90
2017-09-24T09:46:07.186Z,99.90
2017-09-24T09:48:34.711Z,99.90
2017-09-24T09:51:02.259Z,99.90
2017-09-24T09:53:29.774Z,99.90
2017-09-24T09:55:58.076Z,99.60
2017-09-24T09:58:25.598Z,99.50
2017-09-24T10:00:53.139Z,98.70
2017-09-24T10:03:20.662Z,98.00
2017-09-24T10:05:48.193Z,97.50
2017-09-24T10:08:27.683Z,97.60
2017-09-24T10:10:55.217Z,95.60
2017-09-24T10:13:22.735Z,95.50
2017-09-24T10:15:50.299Z,94.70
2017-09-24T10:18:17.842Z,94.10
2017-09-24T10:20:45.381Z,93.20
2017-09-24T10:23:12.899Z,92.70
2017-09-24T10:25:40.438Z,92.60
2017-09-24T10:28:19.790Z,92.60
2017-09-24T10:30:56.192Z,91.40
2017-09-24T10:33:23.727Z,91.90
2017-09-24T10:35:51.262Z,93.10
2017-09-24T10:38:18.777Z,92.80
2017-09-24T10:40:46.336Z,92.10
2017-09-24T10:43:13.858Z,92.10
2017-09-24T10:45:41.375Z,91.20
2017-09-24T10:48:08.908Z,91.20
2017-09-24T10:50:36.430Z,91.00
2017-09-24T10:53:03.962Z,91.20
2017-09-24T10:55:31.479Z,92.00
2017-09-24T10:57:59.779Z,92.10
2017-09-24T11:00:27.300Z,92.10
2017-09-24T11:02:54.838Z,92.10
2017-09-24T11:05:22.356Z,93.10
2017-09-24T11:07:49.901Z,92.70
2017-09-24T11:10:17.433Z,92.30
2017-09-24T11:12:44.975Z,92.10
2017-09-24T11:15:12.499Z,91.90
2017-09-24T11:17:40.034Z,92.30
2017-09-24T11:20:07.555Z,91.30
2017-09-24T11:22:35.096Z,91.90
2017-09-24T11:25:02.614Z,91.60
2017-09-24T11:27:30.156Z,92.30
2017-09-24T11:29:58.447Z,91.30
2017-09-24T11:32:25.987Z,91.30
2017-09-24T11:34:53.502Z,91.50
2017-09-24T11:37:21.037Z,90.50
2017-09-24T11:39:48.562Z,91.10
2017-09-24T11:42:16.866Z,90.40
2017-09-24T11:44:44.385Z,90.30
2017-09-24T11:47:11.926Z,90.90
2017-09-24T11:49:40.210Z,88.60
2017-09-24T11:52:07.747Z,88.40
2017-09-24T11:54:35.271Z,89.80
2017-09-24T11:57:02.846Z,87.10
2017-09-24T11:59:30.359Z,87.10
2017-09-24T12:01:58.679Z,85.90
2017-09-24T12:04:26.963Z,85.80
2017-09-24T12:06:54.499Z,85.80
2017-09-24T12:09:22.018Z,85.70
2017-09-24T12:11:49.555Z,84.40
2017-09-24T12:14:17.080Z,81.30
2017-09-24T12:16:44.622Z,83.10
2017-09-24T12:19:12.138Z,83.30
2017-09-24T12:21:39.677Z,82.10
2017-09-24T12:24:07.195Z,83.10
2017-09-24T12:26:34.739Z,81.30
2017-09-24T12:29:02.259Z,80.80
2017-09-24T12:31:30.566Z,80.30
2017-09-24T12:33:58.091Z,80.30
2017-09-24T12:36:25.605Z,80.70
2017-09-24T12:38:53.143Z,78.90
2017-09-24T12:41:20.662Z,77.50
2017-09-24T12:43:48.203Z,78.20
2017-09-24T12:46:15.724Z,80.20
2017-09-24T12:48:44.032Z,81.10
2017-09-24T12:51:11.551Z,81.10
2017-09-24T12:53:39.855Z,81.60
2017-09-24T12:56:07.379Z,81.60
2017-09-24T12:58:35.683Z,79.90
2017-09-24T13:01:03.198Z,80.00
2017-09-24T13:03:30.741Z,81.20
2017-09-24T13:05:59.027Z,82.70
2017-09-24T13:08:26.565Z,82.70
2017-09-24T13:10:54.091Z,84.10
2017-09-24T13:13:22.396Z,91.40
2017-09-24T13:15:49.915Z,91.40
2017-09-24T13:18:18.218Z,94.10
2017-09-24T13:20:45.732Z,93.80
2017-09-24T13:23:13.274Z,95.20
2017-09-24T13:25:40.790Z,96.50
2017-09-24T13:28:08.326Z,98.00
2017-09-24T13:30:35.839Z,98.70
2017-09-24T13:33:03.377Z,99.30
2017-09-24T13:35:30.893Z,99.90
2017-09-24T13:37:58.430Z,99.90
2017-09-24T13:40:25.946Z,99.90
2017-09-24T13:42:53.483Z,99.90
2017-09-24T13:45:21.005Z,99.90
2017-09-24T13:47:48.545Z,99.90
2017-09-24T13:50:16.070Z,99.90
2017-09-24T13:52:43.608Z,99.90
2017-09-24T13:55:11.890Z,99.90
2017-09-24T13:57:39.421Z,99.90
2017-09-24T14:00:06.946Z,99.90
2017-09-24T14:02:34.479Z,99.90
2017-09-24T14:05:02.006Z,99.90
2017-09-24T14:07:29.543Z,99.90
2017-09-24T14:09:57.070Z,99.90
2017-09-24T14:12:25.355Z,99.90
2017-09-24T14:14:52.893Z,99.90
2017-09-24T14:17:20.416Z,99.90
2017-09-24T14:19:49.562Z,99.90
2017-09-24T14:22:17.092Z,99.90
2017-09-24T14:24:45.390Z,99.90
2017-09-24T14:27:12.905Z,99.90
2017-09-24T14:29:40.445Z,99.90
2017-09-24T14:32:07.963Z,99.90
2017-09-24T14:34:35.504Z,99.90
2017-09-24T14:37:03.022Z,99.90
2017-09-24T14:39:30.562Z,99.90
2017-09-24T14:41:58.093Z,99.90
2017-09-24T14:44:25.632Z,99.90
2017-09-24T14:46:53.150Z,99.90
2017-09-24T14:49:20.686Z,99.90
2017-09-24T14:51:48.203Z,99.90
2017-09-24T14:54:16.505Z,99.90
2017-09-24T14:56:44.034Z,99.90
2017-09-24T14:59:11.571Z,99.90
2017-09-24T15:01:39.092Z,99.90
2017-09-24T15:04:06.642Z,99.90
2017-09-24T15:06:34.175Z,99.90
2017-09-24T15:09:01.714Z,99.90
2017-09-24T15:11:29.234Z,99.90
2017-09-24T15:13:56.770Z,99.90
2017-09-24T15:16:25.063Z,99.90
2017-09-24T15:18:52.630Z,99.90
2017-09-24T15:21:20.146Z,99.90
2017-09-24T15:23:47.681Z,99.90
2017-09-24T15:26:15.203Z,99.90
2017-09-24T15:28:42.743Z,99.90
2017-09-24T15:31:11.028Z,99.90
2017-09-24T15:33:38.574Z,99.90
2017-09-24T15:36:06.092Z,99.90
2017-09-24T15:38:33.632Z,99.90
2017-09-24T15:41:01.160Z,99.90
2017-09-24T15:43:28.694Z,99.90
2017-09-24T15:45:56.210Z,99.90
2017-09-24T15:48:23.750Z,99.90
2017-09-24T15:50:51.278Z,99.90
2017-09-24T15:53:18.819Z,99.90
2017-09-24T15:55:46.338Z,99.90
2017-09-24T15:58:13.890Z,99.90
2017-09-24T16:00:41.415Z,99.90
2017-09-24T16:03:09.720Z,99.90
2017-09-24T16:05:37.259Z,99.90
2017-09-24T16:08:04.781Z,99.90
2017-09-24T16:10:32.322Z,99.90
2017-09-24T16:12:59.841Z,99.90
2017-09-24T16:15:27.373Z,99.90
2017-09-24T16:17:55.654Z,99.90
2017-09-24T16:20:23.192Z,99.90
2017-09-24T16:22:50.711Z,99.90
2017-09-24T16:25:18.252Z,99.90
2017-09-24T16:27:45.777Z,99.90
2017-09-24T16:30:13.313Z,99.90
2017-09-24T16:32:40.830Z,99.90
2017-09-24T16:35:08.371Z,99.90
2017-09-24T16:37:35.894Z,99.90
2017-09-24T16:40:04.211Z,99.90
2017-09-24T16:42:32.494Z,99.90
2017-09-24T16:45:00.050Z,99.90
2017-09-24T16:47:27.575Z,99.90
2017-09-24T16:49:55.878Z,99.90
2017-09-24T16:52:23.395Z,99.90
2017-09-24T16:54:50.940Z,99.90
2017-09-24T16:57:18.459Z,99.90
2017-09-24T16:59:45.993Z,99.90
2017-09-24T17:02:13.510Z,99.90
2017-09-24T17:04:41.811Z,99.90
2017-09-24T17:07:09.327Z,99.90
2017-09-24T17:09:36.871Z,99.90
2017-09-24T17:12:04.392Z,99.90
2017-09-24T17:14:32.700Z,99.90
2017-09-24T17:17:00.220Z,99.90
2017-09-24T17:19:27.750Z,99.90
2017-09-24T17:21:55.279Z,99.90
2017-09-24T17:24:22.829Z,99.90
2017-09-24T17:26:50.346Z,99.90
2017-09-24T17:29:18.659Z,99.90
2017-09-24T17:31:46.179Z,99.90
2017-09-24T17:34:14.486Z,99.90
2017-09-24T17:36:42.003Z,99.90
2017-09-24T17:39:09.538Z,99.90
2017-09-24T17:41:37.062Z,99.90
2017-09-24T17:44:04.599Z,99.90
2017-09-24T17:46:32.114Z,99.90
2017-09-24T17:49:00.422Z,99.90
2017-09-24T17:51:28.719Z,99.90
2017-09-24T17:53:57.020Z,99.90
2017-09-24T17:56:24.557Z,99.90
2017-09-24T17:58:52.099Z,99.90
2017-09-24T18:01:19.615Z,99.90
2017-09-24T18:03:47.159Z,99.90
2017-09-24T18:06:14.683Z,99.90
2017-09-24T18:08:42.223Z,99.90
2017-09-24T18:11:09.748Z,99.90
2017-09-24T18:13:37.262Z,99.90
2017-09-24T18:16:04.799Z,99.90
2017-09-24T18:18:32.324Z,99.90
2017-09-24T18:20:59.858Z,99.90
2017-09-24T18:23:27.377Z,99.90
2017-09-24T18:25:54.915Z,99.90
2017-09-24T18:28:22.440Z,99.90
2017-09-24T18:30:49.977Z,99.90
2017-09-24T18:33:17.494Z,99.90
2017-09-24T18:35:45.034Z,99.90
2017-09-24T18:38:12.554Z,99.90
2017-09-24T18:40:40.095Z,99.90
2017-09-24T18:43:07.610Z,99.90
2017-09-24T18:45:35.145Z,99.90
2017-09-24T18:48:02.661Z,99.90
2017-09-24T18:50:30.982Z,99.90
2017-09-24T18:52:58.503Z,99.90
2017-09-24T18:55:26.805Z,99.90
2017-09-24T18:57:54.319Z,99.90
2017-09-24T19:00:21.862Z,99.90
2017-09-24T19:02:49.379Z,99.90
2017-09-24T19:05:17.690Z,99.90
2017-09-24T19:07:45.207Z,99.90
2017-09-24T19:10:13.515Z,99.90
2017-09-24T19:12:41.034Z,99.90
2017-09-24T19:15:09.339Z,99.90
2017-09-24T19:17:36.858Z,99.90
2017-09-24T19:20:04.400Z,99.90
2017-09-24T19:22:31.931Z,99.90
2017-09-24T19:25:00.239Z,99.90
2017-09-24T19:27:27.764Z,99.90
2017-09-24T19:29:56.083Z,99.90
2017-09-24T19:32:24.372Z,99.90
2017-09-24T19:34:51.904Z,99.90
2017-09-24T19:37:19.447Z,99.90
2017-09-24T19:39:46.968Z,99.90
2017-09-24T19:42:14.517Z,99.90
2017-09-24T19:44:42.037Z,99.90
2017-09-24T19:47:09.579Z,99.90
2017-09-24T19:49:37.858Z,99.90
2017-09-24T19:52:05.401Z,99.90
2017-09-24T19:54:33.687Z,99.90
2017-09-24T19:57:01.222Z,99.90
2017-09-24T19:59:28.742Z,99.90
2017-09-24T20:01:56.283Z,99.90
2017-09-24T20:04:24.566Z,99.90
2017-09-24T20:06:52.851Z,99.90
2017-09-24T20:09:21.159Z,99.90
2017-09-24T20:11:48.675Z,99.90
2017-09-24T20:14:16.214Z,99.90
2017-09-24T20:16:44.499Z,99.90
2017-09-24T20:19:12.807Z,99.90
2017-09-24T20:21:40.324Z,99.90
2017-09-24T20:24:07.866Z,99.90
2017-09-24T20:26:35.382Z,99.90
2017-09-24T20:29:02.918Z,99.90
2017-09-24T20:31:30.439Z,99.90
2017-09-24T20:33:58.741Z,99.90
2017-09-24T20:36:26.265Z,99.90
2017-09-24T20:38:53.815Z,99.90
2017-09-24T20:41:21.333Z,99.90
2017-09-24T20:43:48.849Z,99.90
2017-09-24T20:46:17.150Z,99.90
2017-09-24T20:48:45.443Z,99.90
2017-09-24T20:51:12.983Z,99.90
2017-09-24T20:53:41.264Z,99.90
2017-09-24T20:56:08.811Z,99.90
2017-09-24T20:58:36.334Z,99.90
2017-09-24T21:01:03.866Z,99.90
2017-09-24T21:03:31.383Z,99.90
2017-09-24T21:05:58.927Z,99.90
2017-09-24T21:08:26.452Z,99.90
2017-09-24T21:10:53.983Z,99.90
2017-09-24T21:13:21.509Z,99.90
2017-09-24T21:15:49.047Z,99.90
2017-09-24T21:18:16.571Z,99.90
2017-09-24T21:20:44.880Z,99.90
2017-09-24T21:23:12.405Z,99.90
2017-09-24T21:25:39.943Z,99.90
2017-09-24T21:28:07.464Z,99.90
2017-09-24T21:30:35.058Z,99.90
2017-09-24T21:33:02.578Z,99.90
2017-09-24T21:35:30.884Z,99.90
2017-09-24T21:37:58.401Z,99.90
2017-09-24T21:40:25.933Z,99.90
2017-09-24T21:42:54.221Z,99.90
2017-09-24T21:45:21.763Z,99.90
2017-09-24T21:47:50.047Z,99.90
2017-09-24T21:50:17.584Z,99.90
2017-09-24T21:52:45.099Z,99.90
2017-09-24T21:55:12.634Z,99.90
2017-09-24T21:57:40.933Z,99.90
2017-09-24T22:00:08.470Z,99.90
2017-09-24T22:02:35.990Z,99.90
2017-09-24T22:05:03.530Z,99.90
2017-09-24T22:07:31.047Z,99.90
2017-09-24T22:09:59.346Z,99.90
2017-09-24T22:12:26.867Z,99.90
2017-09-24T22:14:54.405Z,99.90
2017-09-24T22:17:21.922Z,99.90
2017-09-24T22:19:50.226Z,99.90
2017-09-24T22:22:17.747Z,99.90
2017-09-24T22:24:45.267Z,99.90
2017-09-24T22:27:12.815Z,99.90
2017-09-24T22:29:41.102Z,99.90
2017-09-24T22:32:08.639Z,99.90
2017-09-24T22:34:36.159Z,99.90
2017-09-24T22:37:04.461Z,99.90
2017-09-24T22:39:31.982Z,99.90
2017-09-24T22:41:59.518Z,99.90
2017-09-24T22:44:27.030Z,99.90
2017-09-24T22:46:54.567Z,99.90
2017-09-24T22:49:22.090Z,99.90
2017-09-24T22:51:49.633Z,99.90
2017-09-24T22:54:17.151Z,99.90
2017-09-24T22:56:45.458Z,99.90
2017-09-24T22:59:12.979Z,99.90
2017-09-24T23:01:40.527Z,99.90
2017-09-24T23:04:08.042Z,99.90
2017-09-24T23:06:35.577Z,99.90
2017-09-24T23:09:03.107Z,99.90
2017-09-24T23:11:31.418Z,99.90
2017-09-24T23:13:59.710Z,99.90
2017-09-24T23:16:28.025Z,99.90
2017-09-24T23:18:55.546Z,99.90
2017-09-24T23:21:23.084Z,99.90
2017-09-24T23:23:50.604Z,99.90
2017-09-24T23:26:18.155Z,99.90
2017-09-24T23:28:45.680Z,99.90
2017-09-24T23:31:13.223Z,99.90
2017-09-24T23:33:41.508Z,99.90
2017-09-24T23:36:09.046Z,99.90
2017-09-24T23:38:37.339Z,99.90
2017-09-24T23:41:04.881Z,99.90
2017-09-24T23:43:32.404Z,99.90
2017-09-24T23:45:59.943Z,99.90
2017-09-24T23:48:27.459Z,99.90
2017-09-24T23:50:55.764Z,99.90
2017-09-24T23:53:23.278Z,99.90
2017-09-24T23:55:50.826Z,99.90
2017-09-24T23:58:18.345Z,99.90
